Last 24 Hours

OV-Siberia 8700'

Hourly Data | America/Los_Angeles
as of 1/23/22 5:26 AM PST
Date & Time Temp (°F) RH (%) Dew Pt (°F) Wet Bulb (°F) Wind Dir (°) Wind Spd (mph) Wind Gust (mph) WindChill (°F) Daily Min Temp (°F) Daily Max Temp (°F)
1/23/22 - 0500 21.5 76 15.1 19.4 E | 88 35.6 50.7 2.7 19.6 23.5
1/23/22 - 0400 20.9 84 16.9 19.6 ENE | 78 39.2 48.9 -0.4 19.6 23.5
1/23/22 - 0300 20.7 88 17.8 19.7 ENE | 77 41.2 51.8 -0.3 19.9 23.5
1/23/22 - 0200 20.6 85 16.9 19.3 ENE | 78 40.4 55.4 0.9 20.1 23.5
1/23/22 - 0100 22.3 72 14.8 19.8 E | 86 38.4 55.4 2.8 20.5 23.5
1/23/22 - 0000 21.0 83 16.5 19.4 E | 84 38.0 56.2 1.1 14.3 27.4
1/22/22 - 2300 21.1 80 15.9 19.3 E | 84 45.4 70.5 0.9 14.3 27.4
1/22/22 - 2200 21.0 75 14.5 18.9 E | 81 52.8 76.2 -1.8 14.3 27.4
1/22/22 - 2100 20.8 79 15.5 19.1 E | 84 51.7 73.1 -1.1 14.3 27.4
1/22/22 - 2000 21.2 78 15.3 19.2 E | 80 55.1 74.5 -1.4 14.3 27.4
1/22/22 - 1900 21.6 73 14.2 19.2 E | 84 54.0 73.4 -1.1 14.3 27.4
1/22/22 - 1800 22.1 76 15.7 19.9 E | 85 56.6 80.0 -0.5 14.3 27.4
1/22/22 - 1700 22.6 77 16.5 20.5 E | 84 53.4 74.5 1.4 14.3 27.4
1/22/22 - 1600 24.5 72 16.8 21.8 E | 81 58.0 83.1 4.9 14.3 27.4
1/22/22 - 1500 25.7 66 15.9 22.2 E | 81 55.7 81.9 2.1 14.3 25.9
1/22/22 - 1400 22.9 75 16.1 20.6 E | 84 59.5 87.3 -0.7 14.3 23.3
1/22/22 - 1300 21.6 81 16.6 19.9 E | 80 54.3 81.3 -0.9 14.3 22.3
1/22/22 - 1200 21.3 81 16.3 19.6 E | 80 55.4 78.2 -2.9 14.3 21.3
1/22/22 - 1100 20.0 83 15.7 18.5 E | 85 52.2 77.0 -3.5 14.3 20.4
1/22/22 - 1000 18.9 83 14.5 17.5 E | 81 56.1 75.2 -6.3 14.3 19.0
1/22/22 - 0900 17.4 83 13.2 16.1 E | 80 56.1 81.9 -8.9 14.3 18.9
1/22/22 - 0800 15.1 91 12.9 14.4 E | 86 51.9 75.6 -9.7 14.3 18.9
1/22/22 - 0700 14.4 94 13.0 14.0 E | 84 54.0 74.3 -11.1 14.3 18.9
1/22/22 - 0600 14.4 92 12.5 13.8 E | 81 57.3 82.0 -10.8 14.4 18.9
1/22/22 - 0500 14.8 92 12.8 14.2 ENE | 78 56.9 80.5 -10.9 14.6 18.9
Max 25.7 94 17.8 22.2 - 59.5 87.3 4.9 20.5 27.4
Avg 20.3 81 15.3 18.6 - 50.8 72.0 -2.2 - -
Min 14.4 66 12.5 13.8 - 35.6 48.9 -11.1 14.3 18.9